sensor_id;sensor_type;location;lat;lon;timestamp;P1;durP1;ratioP1;P2;durP2;ratioP2
60979;SDS011;46851;49.160;8.980;2023-08-30T00:10:07;20.85;;;13.98;;
60979;SDS011;46851;49.160;8.980;2023-08-30T00:12:41;18.15;;;14.48;;
60979;SDS011;46851;49.160;8.980;2023-08-30T00:15:20;17.63;;;14.40;;
60979;SDS011;46851;49.160;8.980;2023-08-30T00:18:06;15.88;;;13.50;;
60979;SDS011;46851;49.160;8.980;2023-08-30T00:23:53;17.27;;;13.98;;
60979;SDS011;46851;49.160;8.980;2023-08-30T00:26:46;16.77;;;13.60;;
60979;SDS011;46851;49.160;8.980;2023-08-30T00:45:43;15.90;;;13.15;;
60979;SDS011;46851;49.160;8.980;2023-08-30T01:04:08;18.80;;;13.60;;
60979;SDS011;46851;49.160;8.980;2023-08-30T01:10:22;17.27;;;13.13;;
60979;SDS011;46851;49.160;8.980;2023-08-30T02:23:10;21.30;;;15.38;;
60979;SDS011;46851;49.160;8.980;2023-08-30T04:58:10;18.20;;;10.63;;
60979;SDS011;46851;49.160;8.980;2023-08-30T05:06:00;14.88;;;11.00;;
60979;SDS011;46851;49.160;8.980;2023-08-30T05:18:01;14.38;;;12.48;;
60979;SDS011;46851;49.160;8.980;2023-08-30T05:25:48;15.27;;;11.45;;
60979;SDS011;46851;49.160;8.980;2023-08-30T05:28:22;13.32;;;11.55;;
60979;SDS011;46851;49.160;8.980;2023-08-30T05:30:57;13.90;;;10.73;;
60979;SDS011;46851;49.160;8.980;2023-08-30T05:39:51;15.07;;;11.38;;
60979;SDS011;46851;49.160;8.980;2023-08-30T05:42:24;15.23;;;11.98;;
60979;SDS011;46851;49.160;8.980;2023-08-30T05:45:18;13.90;;;11.52;;
60979;SDS011;46851;49.160;8.980;2023-08-30T05:51:01;14.25;;;10.82;;
60979;SDS011;46851;49.160;8.980;2023-08-30T05:53:43;12.40;;;10.60;;
60979;SDS011;46851;49.160;8.980;2023-08-30T05:56:16;13.55;;;9.68;;
60979;SDS011;46851;49.160;8.980;2023-08-30T05:58:47;12.60;;;10.13;;
60979;SDS011;46851;49.160;8.980;2023-08-30T06:01:26;11.77;;;8.65;;
60979;SDS011;46851;49.160;8.980;2023-08-30T06:04:14;10.63;;;8.43;;
60979;SDS011;46851;49.160;8.980;2023-08-30T06:06:44;9.35;;;7.57;;
60979;SDS011;46851;49.160;8.980;2023-08-30T06:09:10;9.20;;;7.47;;
60979;SDS011;46851;49.160;8.980;2023-08-30T06:11:38;7.88;;;7.07;;
60979;SDS011;46851;49.160;8.980;2023-08-30T06:14:04;9.52;;;7.07;;
60979;SDS011;46851;49.160;8.980;2023-08-30T06:16:31;8.98;;;6.45;;
60979;SDS011;46851;49.160;8.980;2023-08-30T06:18:59;10.32;;;6.57;;
60979;SDS011;46851;49.160;8.980;2023-08-30T06:21:29;12.50;;;6.55;;
60979;SDS011;46851;49.160;8.980;2023-08-30T06:23:55;8.82;;;6.40;;
60979;SDS011;46851;49.160;8.980;2023-08-30T06:26:21;8.10;;;5.93;;
60979;SDS011;46851;49.160;8.980;2023-08-30T06:28:50;7.22;;;6.40;;
60979;SDS011;46851;49.160;8.980;2023-08-30T06:31:16;7.25;;;5.78;;
60979;SDS011;46851;49.160;8.980;2023-08-30T06:33:43;7.00;;;5.70;;
60979;SDS011;46851;49.160;8.980;2023-08-30T06:36:09;8.38;;;5.28;;
60979;SDS011;46851;49.160;8.980;2023-08-30T06:38:37;6.40;;;5.22;;
60979;SDS011;46851;49.160;8.980;2023-08-30T06:41:03;10.75;;;5.35;;
60979;SDS011;46851;49.160;8.980;2023-08-30T06:43:37;9.13;;;5.80;;
60979;SDS011;46851;49.160;8.980;2023-08-30T06:46:48;5.63;;;4.93;;
60979;SDS011;46851;49.160;8.980;2023-08-30T06:49:17;6.00;;;4.90;;
60979;SDS011;46851;49.160;8.980;2023-08-30T06:51:56;5.55;;;4.85;;
60979;SDS011;46851;49.160;8.980;2023-08-30T06:54:28;6.00;;;4.90;;
60979;SDS011;46851;49.160;8.980;2023-08-30T06:57:01;8.30;;;5.07;;
60979;SDS011;46851;49.160;8.980;2023-08-30T06:59:32;5.00;;;4.50;;
60979;SDS011;46851;49.160;8.980;2023-08-30T07:01:58;7.47;;;4.03;;
60979;SDS011;46851;49.160;8.980;2023-08-30T07:04:24;7.88;;;4.03;;
60979;SDS011;46851;49.160;8.980;2023-08-30T07:09:26;4.78;;;3.88;;
60979;SDS011;46851;49.160;8.980;2023-08-30T07:11:57;6.05;;;3.58;;
60979;SDS011;46851;49.160;8.980;2023-08-30T07:14:26;7.65;;;3.70;;
60979;SDS011;46851;49.160;8.980;2023-08-30T07:16:52;5.18;;;3.80;;
60979;SDS011;46851;49.160;8.980;2023-08-30T07:19:18;6.32;;;3.47;;
60979;SDS011;46851;49.160;8.980;2023-08-30T07:21:44;9.85;;;4.00;;
60979;SDS011;46851;49.160;8.980;2023-08-30T07:24:10;18.25;;;4.30;;
60979;SDS011;46851;49.160;8.980;2023-08-30T07:26:37;11.45;;;4.28;;
60979;SDS011;46851;49.160;8.980;2023-08-30T07:29:03;7.25;;;3.83;;
60979;SDS011;46851;49.160;8.980;2023-08-30T07:31:32;13.25;;;3.97;;
60979;SDS011;46851;49.160;8.980;2023-08-30T07:34:01;8.90;;;4.18;;
60979;SDS011;46851;49.160;8.980;2023-08-30T07:36:27;11.07;;;4.00;;
60979;SDS011;46851;49.160;8.980;2023-08-30T07:38:53;12.65;;;4.20;;
60979;SDS011;46851;49.160;8.980;2023-08-30T07:41:20;16.05;;;4.18;;
60979;SDS011;46851;49.160;8.980;2023-08-30T07:46:49;15.20;;;4.65;;
60979;SDS011;46851;49.160;8.980;2023-08-30T07:49:15;11.32;;;4.07;;
60979;SDS011;46851;49.160;8.980;2023-08-30T07:51:44;7.30;;;3.65;;
60979;SDS011;46851;49.160;8.980;2023-08-30T07:54:10;8.43;;;3.47;;
60979;SDS011;46851;49.160;8.980;2023-08-30T07:56:36;3.20;;;2.90;;
60979;SDS011;46851;49.160;8.980;2023-08-30T08:02:23;2.75;;;2.55;;
60979;SDS011;46851;49.160;8.980;2023-08-30T08:04:55;3.28;;;2.70;;
60979;SDS011;46851;49.160;8.980;2023-08-30T08:07:51;5.30;;;2.65;;
60979;SDS011;46851;49.160;8.980;2023-08-30T08:13:40;2.63;;;2.30;;
60979;SDS011;46851;49.160;8.980;2023-08-30T08:16:07;4.80;;;2.45;;
60979;SDS011;46851;49.160;8.980;2023-08-30T08:18:54;2.92;;;2.55;;
60979;SDS011;46851;49.160;8.980;2023-08-30T08:21:41;4.32;;;2.45;;
60979;SDS011;46851;49.160;8.980;2023-08-30T08:24:25;2.97;;;1.95;;
60979;SDS011;46851;49.160;8.980;2023-08-30T08:26:51;3.45;;;2.15;;
60979;SDS011;46851;49.160;8.980;2023-08-30T08:29:28;3.03;;;2.03;;
60979;SDS011;46851;49.160;8.980;2023-08-30T08:31:57;5.22;;;2.08;;
60979;SDS011;46851;49.160;8.980;2023-08-30T08:34:30;3.28;;;2.08;;
60979;SDS011;46851;49.160;8.980;2023-08-30T08:36:58;4.63;;;2.35;;
60979;SDS011;46851;49.160;8.980;2023-08-30T08:39:24;4.18;;;2.53;;
60979;SDS011;46851;49.160;8.980;2023-08-30T08:44:39;5.55;;;2.50;;
60979;SDS011;46851;49.160;8.980;2023-08-30T08:47:08;3.00;;;2.40;;
60979;SDS011;46851;49.160;8.980;2023-08-30T08:49:35;3.47;;;2.58;;
60979;SDS011;46851;49.160;8.980;2023-08-30T08:52:01;4.82;;;2.78;;
60979;SDS011;46851;49.160;8.980;2023-08-30T08:54:35;2.70;;;2.42;;
60979;SDS011;46851;49.160;8.980;2023-08-30T08:57:13;5.22;;;2.85;;
60979;SDS011;46851;49.160;8.980;2023-08-30T08:59:45;6.78;;;2.80;;
60979;SDS011;46851;49.160;8.980;2023-08-30T09:05:04;3.80;;;2.85;;
60979;SDS011;46851;49.160;8.980;2023-08-30T09:07:39;4.43;;;2.90;;
60979;SDS011;46851;49.160;8.980;2023-08-30T09:10:07;3.88;;;2.67;;
60979;SDS011;46851;49.160;8.980;2023-08-30T09:12:56;3.65;;;2.40;;
60979;SDS011;46851;49.160;8.980;2023-08-30T09:15:35;2.60;;;2.35;;
60979;SDS011;46851;49.160;8.980;2023-08-30T09:18:16;3.90;;;2.47;;
60979;SDS011;46851;49.160;8.980;2023-08-30T09:26:32;6.10;;;2.28;;
60979;SDS011;46851;49.160;8.980;2023-08-30T09:32:42;3.80;;;2.80;;
60979;SDS011;46851;49.160;8.980;2023-08-30T09:35:13;5.15;;;2.50;;
60979;SDS011;46851;49.160;8.980;2023-08-30T09:44:13;3.60;;;2.50;;
60979;SDS011;46851;49.160;8.980;2023-08-30T09:46:55;3.38;;;2.63;;
60979;SDS011;46851;49.160;8.980;2023-08-30T09:52:23;3.65;;;3.15;;
60979;SDS011;46851;49.160;8.980;2023-08-30T09:58:12;6.78;;;2.28;;
60979;SDS011;46851;49.160;8.980;2023-08-30T10:03:45;3.45;;;1.77;;
60979;SDS011;46851;49.160;8.980;2023-08-30T10:06:42;2.42;;;2.20;;
60979;SDS011;46851;49.160;8.980;2023-08-30T10:09:24;2.88;;;2.00;;
60979;SDS011;46851;49.160;8.980;2023-08-30T10:12:23;4.32;;;1.90;;
60979;SDS011;46851;49.160;8.980;2023-08-30T10:24:11;2.67;;;2.10;;
60979;SDS011;46851;49.160;8.980;2023-08-30T10:26:38;3.58;;;2.17;;
60979;SDS011;46851;49.160;8.980;2023-08-30T10:29:06;3.38;;;1.88;;
60979;SDS011;46851;49.160;8.980;2023-08-30T10:31:32;4.35;;;1.90;;
60979;SDS011;46851;49.160;8.980;2023-08-30T10:33:58;4.35;;;2.13;;
60979;SDS011;46851;49.160;8.980;2023-08-30T10:36:25;6.20;;;1.77;;
60979;SDS011;46851;49.160;8.980;2023-08-30T10:38:54;3.30;;;2.15;;
60979;SDS011;46851;49.160;8.980;2023-08-30T10:41:24;3.25;;;1.90;;
60979;SDS011;46851;49.160;8.980;2023-08-30T10:43:51;3.55;;;2.30;;
60979;SDS011;46851;49.160;8.980;2023-08-30T10:46:17;3.38;;;2.13;;
60979;SDS011;46851;49.160;8.980;2023-08-30T10:48:43;2.17;;;1.98;;
60979;SDS011;46851;49.160;8.980;2023-08-30T10:51:23;2.15;;;1.80;;
60979;SDS011;46851;49.160;8.980;2023-08-30T10:54:05;3.15;;;1.80;;
60979;SDS011;46851;49.160;8.980;2023-08-30T10:56:35;3.65;;;2.33;;
60979;SDS011;46851;49.160;8.980;2023-08-30T10:59:15;5.15;;;1.73;;
60979;SDS011;46851;49.160;8.980;2023-08-30T11:01:42;2.53;;;1.80;;
60979;SDS011;46851;49.160;8.980;2023-08-30T11:04:09;2.03;;;1.65;;
60979;SDS011;46851;49.160;8.980;2023-08-30T11:06:37;2.20;;;1.95;;
60979;SDS011;46851;49.160;8.980;2023-08-30T11:09:03;2.92;;;2.03;;
60979;SDS011;46851;49.160;8.980;2023-08-30T11:11:30;4.40;;;2.10;;
60979;SDS011;46851;49.160;8.980;2023-08-30T11:14:03;1.98;;;1.48;;
60979;SDS011;46851;49.160;8.980;2023-08-30T11:16:29;4.88;;;2.03;;
60979;SDS011;46851;49.160;8.980;2023-08-30T11:18:55;6.10;;;1.63;;
60979;SDS011;46851;49.160;8.980;2023-08-30T11:21:21;2.00;;;1.70;;
60979;SDS011;46851;49.160;8.980;2023-08-30T11:23:47;2.53;;;1.77;;
60979;SDS011;46851;49.160;8.980;2023-08-30T11:26:13;3.30;;;1.70;;
60979;SDS011;46851;49.160;8.980;2023-08-30T11:28:42;2.17;;;1.73;;
60979;SDS011;46851;49.160;8.980;2023-08-30T11:31:17;3.20;;;2.10;;
60979;SDS011;46851;49.160;8.980;2023-08-30T11:33:49;2.30;;;1.77;;
60979;SDS011;46851;49.160;8.980;2023-08-30T11:36:16;7.47;;;1.63;;
60979;SDS011;46851;49.160;8.980;2023-08-30T11:38:42;3.25;;;1.55;;
60979;SDS011;46851;49.160;8.980;2023-08-30T11:41:08;6.00;;;1.55;;
60979;SDS011;46851;49.160;8.980;2023-08-30T11:43:34;5.78;;;1.75;;
60979;SDS011;46851;49.160;8.980;2023-08-30T11:46:00;3.75;;;1.55;;
60979;SDS011;46851;49.160;8.980;2023-08-30T11:48:28;1.70;;;1.35;;
60979;SDS011;46851;49.160;8.980;2023-08-30T11:50:55;5.88;;;1.60;;
60979;SDS011;46851;49.160;8.980;2023-08-30T11:53:21;1.90;;;1.50;;
60979;SDS011;46851;49.160;8.980;2023-08-30T11:55:47;1.80;;;1.30;;
60979;SDS011;46851;49.160;8.980;2023-08-30T11:58:13;2.05;;;1.40;;
60979;SDS011;46851;49.160;8.980;2023-08-30T12:00:39;4.28;;;1.50;;
60979;SDS011;46851;49.160;8.980;2023-08-30T12:03:05;3.70;;;1.65;;
60979;SDS011;46851;49.160;8.980;2023-08-30T12:05:31;2.58;;;1.50;;
60979;SDS011;46851;49.160;8.980;2023-08-30T12:08:00;2.70;;;1.58;;
60979;SDS011;46851;49.160;8.980;2023-08-30T12:10:28;4.00;;;1.63;;
60979;SDS011;46851;49.160;8.980;2023-08-30T12:12:55;1.67;;;1.15;;
60979;SDS011;46851;49.160;8.980;2023-08-30T12:15:22;1.55;;;1.20;;
60979;SDS011;46851;49.160;8.980;2023-08-30T12:17:50;2.30;;;1.73;;
60979;SDS011;46851;49.160;8.980;2023-08-30T12:20:17;3.22;;;1.27;;
60979;SDS011;46851;49.160;8.980;2023-08-30T12:22:45;4.57;;;1.47;;
60979;SDS011;46851;49.160;8.980;2023-08-30T12:25:16;1.88;;;1.38;;
60979;SDS011;46851;49.160;8.980;2023-08-30T12:27:42;3.05;;;1.60;;
60979;SDS011;46851;49.160;8.980;2023-08-30T12:30:08;2.63;;;1.70;;
60979;SDS011;46851;49.160;8.980;2023-08-30T12:32:35;3.20;;;1.60;;
60979;SDS011;46851;49.160;8.980;2023-08-30T12:35:01;2.25;;;1.30;;
60979;SDS011;46851;49.160;8.980;2023-08-30T12:37:28;3.45;;;1.60;;
60979;SDS011;46851;49.160;8.980;2023-08-30T12:39:54;1.38;;;1.20;;
60979;SDS011;46851;49.160;8.980;2023-08-30T12:42:20;3.90;;;1.60;;
60979;SDS011;46851;49.160;8.980;2023-08-30T12:44:45;1.77;;;1.30;;
60979;SDS011;46851;49.160;8.980;2023-08-30T12:47:12;3.80;;;1.92;;
60979;SDS011;46851;49.160;8.980;2023-08-30T12:49:39;3.08;;;1.70;;
60979;SDS011;46851;49.160;8.980;2023-08-30T12:52:05;2.83;;;1.35;;
60979;SDS011;46851;49.160;8.980;2023-08-30T12:54:32;3.03;;;1.48;;
60979;SDS011;46851;49.160;8.980;2023-08-30T12:56:58;2.63;;;1.50;;
60979;SDS011;46851;49.160;8.980;2023-08-30T12:59:24;4.00;;;1.58;;
60979;SDS011;46851;49.160;8.980;2023-08-30T13:01:50;10.75;;;1.65;;
60979;SDS011;46851;49.160;8.980;2023-08-30T13:04:16;13.05;;;1.92;;
60979;SDS011;46851;49.160;8.980;2023-08-30T13:06:42;6.38;;;1.80;;
60979;SDS011;46851;49.160;8.980;2023-08-30T13:09:08;11.85;;;1.77;;
60979;SDS011;46851;49.160;8.980;2023-08-30T13:11:34;4.32;;;1.60;;
60979;SDS011;46851;49.160;8.980;2023-08-30T13:14:01;2.72;;;1.27;;
60979;SDS011;46851;49.160;8.980;2023-08-30T13:16:27;3.55;;;1.45;;
60979;SDS011;46851;49.160;8.980;2023-08-30T13:18:53;3.88;;;1.77;;
60979;SDS011;46851;49.160;8.980;2023-08-30T13:21:19;3.83;;;1.42;;
60979;SDS011;46851;49.160;8.980;2023-08-30T13:23:45;10.10;;;1.80;;
60979;SDS011;46851;49.160;8.980;2023-08-30T13:26:11;3.70;;;1.65;;
60979;SDS011;46851;49.160;8.980;2023-08-30T13:28:37;5.95;;;1.67;;
60979;SDS011;46851;49.160;8.980;2023-08-30T13:31:06;6.05;;;1.63;;
60979;SDS011;46851;49.160;8.980;2023-08-30T13:33:32;7.82;;;1.50;;
60979;SDS011;46851;49.160;8.980;2023-08-30T13:35:58;5.30;;;1.65;;
60979;SDS011;46851;49.160;8.980;2023-08-30T13:38:24;9.88;;;1.58;;
60979;SDS011;46851;49.160;8.980;2023-08-30T13:40:50;7.85;;;1.65;;
60979;SDS011;46851;49.160;8.980;2023-08-30T13:43:16;7.13;;;2.25;;
60979;SDS011;46851;49.160;8.980;2023-08-30T13:45:43;1.50;;;1.40;;
60979;SDS011;46851;49.160;8.980;2023-08-30T13:48:12;4.95;;;1.75;;
60979;SDS011;46851;49.160;8.980;2023-08-30T13:50:41;6.93;;;1.90;;
60979;SDS011;46851;49.160;8.980;2023-08-30T13:53:07;10.07;;;1.80;;
60979;SDS011;46851;49.160;8.980;2023-08-30T13:55:33;7.18;;;1.58;;
60979;SDS011;46851;49.160;8.980;2023-08-30T13:57:59;2.95;;;1.65;;
60979;SDS011;46851;49.160;8.980;2023-08-30T14:00:25;3.58;;;1.67;;
60979;SDS011;46851;49.160;8.980;2023-08-30T14:02:51;2.97;;;1.83;;
60979;SDS011;46851;49.160;8.980;2023-08-30T14:05:17;3.92;;;1.50;;
60979;SDS011;46851;49.160;8.980;2023-08-30T14:07:43;4.30;;;1.80;;
60979;SDS011;46851;49.160;8.980;2023-08-30T14:10:09;2.38;;;1.70;;
60979;SDS011;46851;49.160;8.980;2023-08-30T14:12:36;2.53;;;1.60;;
60979;SDS011;46851;49.160;8.980;2023-08-30T14:15:02;4.20;;;1.80;;
60979;SDS011;46851;49.160;8.980;2023-08-30T14:17:28;3.35;;;1.75;;
60979;SDS011;46851;49.160;8.980;2023-08-30T14:19:54;3.17;;;1.65;;
60979;SDS011;46851;49.160;8.980;2023-08-30T14:22:20;4.28;;;1.83;;
60979;SDS011;46851;49.160;8.980;2023-08-30T14:24:46;4.45;;;1.50;;
60979;SDS011;46851;49.160;8.980;2023-08-30T14:27:12;2.83;;;1.40;;
60979;SDS011;46851;49.160;8.980;2023-08-30T14:29:38;2.13;;;1.83;;
60979;SDS011;46851;49.160;8.980;2023-08-30T14:32:04;2.75;;;1.67;;
60979;SDS011;46851;49.160;8.980;2023-08-30T14:34:30;3.38;;;2.00;;
60979;SDS011;46851;49.160;8.980;2023-08-30T14:36:57;1.88;;;1.33;;
60979;SDS011;46851;49.160;8.980;2023-08-30T14:39:23;4.20;;;1.85;;
60979;SDS011;46851;49.160;8.980;2023-08-30T14:41:49;2.95;;;1.65;;
60979;SDS011;46851;49.160;8.980;2023-08-30T14:44:15;2.88;;;1.70;;
60979;SDS011;46851;49.160;8.980;2023-08-30T14:46:41;4.22;;;1.60;;
60979;SDS011;46851;49.160;8.980;2023-08-30T14:49:07;2.17;;;1.58;;
60979;SDS011;46851;49.160;8.980;2023-08-30T14:51:33;4.20;;;1.63;;
60979;SDS011;46851;49.160;8.980;2023-08-30T14:53:59;3.95;;;1.50;;
60979;SDS011;46851;49.160;8.980;2023-08-30T14:56:25;1.50;;;1.38;;
60979;SDS011;46851;49.160;8.980;2023-08-30T14:58:51;3.85;;;1.40;;
60979;SDS011;46851;49.160;8.980;2023-08-30T15:01:17;3.13;;;1.33;;
60979;SDS011;46851;49.160;8.980;2023-08-30T15:03:43;4.65;;;1.50;;
60979;SDS011;46851;49.160;8.980;2023-08-30T15:06:09;3.53;;;1.48;;
60979;SDS011;46851;49.160;8.980;2023-08-30T15:08:38;3.95;;;1.52;;
60979;SDS011;46851;49.160;8.980;2023-08-30T15:11:05;1.80;;;1.30;;
60979;SDS011;46851;49.160;8.980;2023-08-30T15:13:33;6.55;;;1.45;;
60979;SDS011;46851;49.160;8.980;2023-08-30T15:15:59;5.40;;;1.67;;
60979;SDS011;46851;49.160;8.980;2023-08-30T15:18:25;2.40;;;1.38;;
60979;SDS011;46851;49.160;8.980;2023-08-30T15:20:51;2.03;;;1.38;;
60979;SDS011;46851;49.160;8.980;2023-08-30T15:23:18;2.60;;;1.48;;
60979;SDS011;46851;49.160;8.980;2023-08-30T15:25:45;2.95;;;1.58;;
60979;SDS011;46851;49.160;8.980;2023-08-30T15:28:11;3.67;;;1.63;;
60979;SDS011;46851;49.160;8.980;2023-08-30T15:30:37;5.15;;;1.60;;
60979;SDS011;46851;49.160;8.980;2023-08-30T15:33:05;2.30;;;1.50;;
60979;SDS011;46851;49.160;8.980;2023-08-30T15:37:59;2.03;;;1.50;;
60979;SDS011;46851;49.160;8.980;2023-08-30T15:40:25;4.07;;;1.33;;
60979;SDS011;46851;49.160;8.980;2023-08-30T15:42:51;3.58;;;1.80;;
60979;SDS011;46851;49.160;8.980;2023-08-30T15:45:17;1.80;;;1.58;;
60979;SDS011;46851;49.160;8.980;2023-08-30T15:47:43;2.85;;;1.48;;
60979;SDS011;46851;49.160;8.980;2023-08-30T15:50:09;5.38;;;1.67;;
60979;SDS011;46851;49.160;8.980;2023-08-30T15:52:35;3.10;;;1.65;;
60979;SDS011;46851;49.160;8.980;2023-08-30T15:55:01;3.25;;;1.48;;
60979;SDS011;46851;49.160;8.980;2023-08-30T15:57:27;1.80;;;1.33;;
60979;SDS011;46851;49.160;8.980;2023-08-30T15:59:53;4.75;;;1.88;;
60979;SDS011;46851;49.160;8.980;2023-08-30T16:02:19;3.13;;;1.58;;
60979;SDS011;46851;49.160;8.980;2023-08-30T16:04:45;1.92;;;1.50;;
60979;SDS011;46851;49.160;8.980;2023-08-30T16:07:11;2.25;;;1.40;;
60979;SDS011;46851;49.160;8.980;2023-08-30T16:09:37;2.50;;;1.60;;
60979;SDS011;46851;49.160;8.980;2023-08-30T16:12:03;5.72;;;1.50;;
60979;SDS011;46851;49.160;8.980;2023-08-30T16:14:29;4.07;;;1.70;;
60979;SDS011;46851;49.160;8.980;2023-08-30T16:16:55;2.15;;;1.60;;
60979;SDS011;46851;49.160;8.980;2023-08-30T16:19:21;2.25;;;1.75;;
60979;SDS011;46851;49.160;8.980;2023-08-30T16:21:49;1.83;;;1.48;;
60979;SDS011;46851;49.160;8.980;2023-08-30T16:24:18;2.05;;;1.50;;
60979;SDS011;46851;49.160;8.980;2023-08-30T16:26:44;3.22;;;1.55;;
60979;SDS011;46851;49.160;8.980;2023-08-30T16:29:11;2.35;;;1.52;;
60979;SDS011;46851;49.160;8.980;2023-08-30T16:31:37;4.80;;;1.70;;
60979;SDS011;46851;49.160;8.980;2023-08-30T16:34:03;1.67;;;1.40;;
60979;SDS011;46851;49.160;8.980;2023-08-30T16:36:29;1.50;;;1.40;;
60979;SDS011;46851;49.160;8.980;2023-08-30T16:38:55;3.10;;;1.60;;
60979;SDS011;46851;49.160;8.980;2023-08-30T16:41:21;2.55;;;1.45;;
60979;SDS011;46851;49.160;8.980;2023-08-30T16:43:50;2.83;;;1.52;;
60979;SDS011;46851;49.160;8.980;2023-08-30T16:46:16;5.28;;;1.40;;
60979;SDS011;46851;49.160;8.980;2023-08-30T16:48:42;2.45;;;1.75;;
60979;SDS011;46851;49.160;8.980;2023-08-30T16:51:08;2.10;;;1.50;;
60979;SDS011;46851;49.160;8.980;2023-08-30T16:53:34;3.53;;;1.70;;
60979;SDS011;46851;49.160;8.980;2023-08-30T16:56:00;4.18;;;1.50;;
60979;SDS011;46851;49.160;8.980;2023-08-30T16:58:27;2.70;;;1.70;;
60979;SDS011;46851;49.160;8.980;2023-08-30T17:00:53;2.42;;;1.77;;
60979;SDS011;46851;49.160;8.980;2023-08-30T17:03:19;3.35;;;2.00;;
60979;SDS011;46851;49.160;8.980;2023-08-30T17:05:46;2.72;;;1.70;;
60979;SDS011;46851;49.160;8.980;2023-08-30T17:08:12;5.78;;;1.73;;
60979;SDS011;46851;49.160;8.980;2023-08-30T17:10:38;2.08;;;1.70;;
60979;SDS011;46851;49.160;8.980;2023-08-30T17:13:04;2.95;;;1.70;;
60979;SDS011;46851;49.160;8.980;2023-08-30T17:15:30;2.13;;;1.70;;
60979;SDS011;46851;49.160;8.980;2023-08-30T17:17:56;2.78;;;1.63;;
60979;SDS011;46851;49.160;8.980;2023-08-30T17:20:22;5.10;;;1.70;;
60979;SDS011;46851;49.160;8.980;2023-08-30T17:22:48;3.03;;;1.42;;
60979;SDS011;46851;49.160;8.980;2023-08-30T17:25:14;3.50;;;1.70;;
60979;SDS011;46851;49.160;8.980;2023-08-30T17:27:41;1.98;;;1.63;;
60979;SDS011;46851;49.160;8.980;2023-08-30T17:30:08;3.45;;;1.60;;
60979;SDS011;46851;49.160;8.980;2023-08-30T17:32:37;2.55;;;1.45;;
60979;SDS011;46851;49.160;8.980;2023-08-30T17:35:03;3.70;;;2.00;;
60979;SDS011;46851;49.160;8.980;2023-08-30T17:37:29;4.05;;;1.50;;
60979;SDS011;46851;49.160;8.980;2023-08-30T17:39:56;3.15;;;1.58;;
60979;SDS011;46851;49.160;8.980;2023-08-30T17:42:22;2.15;;;1.70;;
60979;SDS011;46851;49.160;8.980;2023-08-30T17:44:48;4.78;;;2.42;;
60979;SDS011;46851;49.160;8.980;2023-08-30T17:47:14;4.38;;;1.75;;
60979;SDS011;46851;49.160;8.980;2023-08-30T17:49:40;3.38;;;1.80;;
60979;SDS011;46851;49.160;8.980;2023-08-30T17:52:06;3.60;;;1.80;;
60979;SDS011;46851;49.160;8.980;2023-08-30T17:54:32;2.03;;;1.67;;
60979;SDS011;46851;49.160;8.980;2023-08-30T17:57:00;3.08;;;1.70;;
60979;SDS011;46851;49.160;8.980;2023-08-30T17:59:28;2.40;;;1.70;;
60979;SDS011;46851;49.160;8.980;2023-08-30T18:01:55;3.95;;;1.92;;
60979;SDS011;46851;49.160;8.980;2023-08-30T18:04:22;3.60;;;1.80;;
60979;SDS011;46851;49.160;8.980;2023-08-30T18:06:48;3.13;;;1.83;;
60979;SDS011;46851;49.160;8.980;2023-08-30T18:09:13;1.80;;;1.70;;
60979;SDS011;46851;49.160;8.980;2023-08-30T18:11:39;2.38;;;1.90;;
60979;SDS011;46851;49.160;8.980;2023-08-30T18:14:05;3.55;;;1.95;;
60979;SDS011;46851;49.160;8.980;2023-08-30T18:16:31;3.90;;;2.05;;
60979;SDS011;46851;49.160;8.980;2023-08-30T18:18:57;4.22;;;2.38;;
60979;SDS011;46851;49.160;8.980;2023-08-30T18:21:23;4.75;;;2.33;;
60979;SDS011;46851;49.160;8.980;2023-08-30T18:26:35;6.65;;;2.15;;
60979;SDS011;46851;49.160;8.980;2023-08-30T18:29:01;3.50;;;1.98;;
60979;SDS011;46851;49.160;8.980;2023-08-30T18:31:28;5.90;;;2.08;;
60979;SDS011;46851;49.160;8.980;2023-08-30T18:33:53;2.70;;;1.85;;
60979;SDS011;46851;49.160;8.980;2023-08-30T18:36:19;2.60;;;2.10;;
60979;SDS011;46851;49.160;8.980;2023-08-30T18:38:45;3.60;;;2.40;;
60979;SDS011;46851;49.160;8.980;2023-08-30T18:41:11;3.90;;;2.83;;
60979;SDS011;46851;49.160;8.980;2023-08-30T18:43:41;3.53;;;2.25;;
60979;SDS011;46851;49.160;8.980;2023-08-30T18:46:07;2.75;;;2.22;;
60979;SDS011;46851;49.160;8.980;2023-08-30T18:48:34;2.72;;;1.90;;
60979;SDS011;46851;49.160;8.980;2023-08-30T18:51:00;3.75;;;2.10;;
60979;SDS011;46851;49.160;8.980;2023-08-30T18:53:26;3.60;;;2.40;;
60979;SDS011;46851;49.160;8.980;2023-08-30T18:55:52;3.40;;;2.35;;
60979;SDS011;46851;49.160;8.980;2023-08-30T18:58:18;3.15;;;2.13;;
60979;SDS011;46851;49.160;8.980;2023-08-30T19:00:48;3.47;;;2.03;;
60979;SDS011;46851;49.160;8.980;2023-08-30T19:03:14;3.95;;;1.80;;
60979;SDS011;46851;49.160;8.980;2023-08-30T19:05:40;2.80;;;1.75;;
60979;SDS011;46851;49.160;8.980;2023-08-30T19:08:06;3.58;;;2.25;;
60979;SDS011;46851;49.160;8.980;2023-08-30T19:10:33;4.07;;;2.20;;
60979;SDS011;46851;49.160;8.980;2023-08-30T19:12:59;3.85;;;2.10;;
60979;SDS011;46851;49.160;8.980;2023-08-30T19:15:25;2.38;;;1.80;;
60979;SDS011;46851;49.160;8.980;2023-08-30T19:17:51;3.75;;;2.30;;
60979;SDS011;46851;49.160;8.980;2023-08-30T19:20:17;6.15;;;2.10;;
60979;SDS011;46851;49.160;8.980;2023-08-30T19:22:43;5.53;;;2.78;;
60979;SDS011;46851;49.160;8.980;2023-08-30T19:25:09;3.90;;;1.60;;
60979;SDS011;46851;49.160;8.980;2023-08-30T19:27:40;3.72;;;1.60;;
60979;SDS011;46851;49.160;8.980;2023-08-30T19:30:07;4.57;;;1.83;;
60979;SDS011;46851;49.160;8.980;2023-08-30T19:32:33;6.82;;;2.10;;
60979;SDS011;46851;49.160;8.980;2023-08-30T19:34:59;3.40;;;1.70;;
60979;SDS011;46851;49.160;8.980;2023-08-30T19:37:25;5.00;;;1.70;;
60979;SDS011;46851;49.160;8.980;2023-08-30T19:39:52;3.42;;;1.70;;
60979;SDS011;46851;49.160;8.980;2023-08-30T19:42:18;3.70;;;1.70;;
60979;SDS011;46851;49.160;8.980;2023-08-30T19:44:48;2.58;;;1.83;;
60979;SDS011;46851;49.160;8.980;2023-08-30T19:47:22;2.13;;;1.40;;
60979;SDS011;46851;49.160;8.980;2023-08-30T19:49:48;3.30;;;1.75;;
60979;SDS011;46851;49.160;8.980;2023-08-30T19:52:14;2.85;;;1.63;;
60979;SDS011;46851;49.160;8.980;2023-08-30T19:54:41;1.75;;;1.50;;
60979;SDS011;46851;49.160;8.980;2023-08-30T19:57:07;2.60;;;1.65;;
60979;SDS011;46851;49.160;8.980;2023-08-30T19:59:33;2.83;;;1.35;;
60979;SDS011;46851;49.160;8.980;2023-08-30T20:01:59;4.35;;;1.60;;
60979;SDS011;46851;49.160;8.980;2023-08-30T20:04:26;2.67;;;1.40;;
60979;SDS011;46851;49.160;8.980;2023-08-30T20:06:52;2.80;;;1.70;;
60979;SDS011;46851;49.160;8.980;2023-08-30T20:09:18;2.20;;;1.40;;
60979;SDS011;46851;49.160;8.980;2023-08-30T20:11:47;2.17;;;1.45;;
60979;SDS011;46851;49.160;8.980;2023-08-30T20:14:13;2.17;;;1.38;;
60979;SDS011;46851;49.160;8.980;2023-08-30T20:16:43;4.43;;;1.55;;
60979;SDS011;46851;49.160;8.980;2023-08-30T20:21:37;2.60;;;1.45;;
60979;SDS011;46851;49.160;8.980;2023-08-30T20:24:04;2.58;;;1.55;;
60979;SDS011;46851;49.160;8.980;2023-08-30T20:26:30;2.67;;;1.55;;
60979;SDS011;46851;49.160;8.980;2023-08-30T20:28:56;2.28;;;1.55;;
60979;SDS011;46851;49.160;8.980;2023-08-30T20:31:22;4.60;;;1.70;;
60979;SDS011;46851;49.160;8.980;2023-08-30T20:33:48;2.75;;;1.63;;
60979;SDS011;46851;49.160;8.980;2023-08-30T20:36:14;3.33;;;1.83;;
60979;SDS011;46851;49.160;8.980;2023-08-30T20:38:41;2.97;;;2.00;;
60979;SDS011;46851;49.160;8.980;2023-08-30T20:41:07;2.35;;;1.45;;
60979;SDS011;46851;49.160;8.980;2023-08-30T20:43:33;4.57;;;1.98;;
60979;SDS011;46851;49.160;8.980;2023-08-30T20:45:59;4.35;;;1.70;;
60979;SDS011;46851;49.160;8.980;2023-08-30T20:48:25;2.55;;;1.75;;
60979;SDS011;46851;49.160;8.980;2023-08-30T20:51:00;3.22;;;1.83;;
60979;SDS011;46851;49.160;8.980;2023-08-30T20:53:33;3.30;;;1.70;;